createdAt,value
2017-11-26T00:00:49.322Z,2.20
2017-11-26T00:03:17.154Z,2.20
2017-11-26T00:05:44.078Z,2.30
2017-11-26T00:08:13.738Z,2.40
2017-11-26T00:10:41.694Z,2.40
2017-11-26T00:13:08.604Z,2.40
2017-11-26T00:15:35.520Z,2.40
2017-11-26T00:18:02.433Z,2.30
2017-11-26T00:20:29.336Z,2.40
2017-11-26T00:22:56.264Z,2.30
2017-11-26T00:25:25.085Z,2.30
2017-11-26T00:27:52.774Z,2.30
2017-11-26T00:30:20.608Z,2.20
2017-11-26T00:32:48.368Z,2.20
2017-11-26T00:35:15.270Z,2.40
2017-11-26T00:37:42.190Z,2.30
2017-11-26T00:40:09.092Z,2.30
2017-11-26T00:42:36.022Z,2.20
2017-11-26T00:45:03.913Z,2.30
2017-11-26T00:47:32.602Z,2.30
2017-11-26T00:50:00.271Z,2.30
2017-11-26T00:52:27.967Z,2.30
2017-11-26T00:54:54.873Z,2.20
2017-11-26T00:57:22.669Z,2.20
2017-11-26T00:59:49.585Z,2.30
2017-11-26T01:02:19.695Z,2.10
2017-11-26T01:04:46.617Z,2.10
2017-11-26T01:07:13.529Z,2.20
2017-11-26T01:09:40.450Z,2.00
2017-11-26T01:12:07.358Z,2.00
2017-11-26T01:14:34.260Z,2.00
2017-11-26T01:17:01.167Z,2.00
2017-11-26T01:19:28.848Z,2.00
2017-11-26T01:21:55.794Z,1.90
2017-11-26T01:24:22.725Z,1.90
2017-11-26T01:26:49.659Z,2.00
2017-11-26T01:29:16.579Z,2.00
2017-11-26T01:31:43.491Z,2.00
2017-11-26T01:34:10.425Z,2.00
2017-11-26T01:36:37.359Z,2.00
2017-11-26T01:39:04.287Z,2.00
2017-11-26T01:41:31.975Z,2.00
2017-11-26T01:43:59.798Z,2.20
2017-11-26T01:46:27.491Z,2.10
2017-11-26T01:48:55.309Z,2.10
2017-11-26T01:51:22.246Z,2.10
2017-11-26T01:53:49.143Z,2.10
2017-11-26T01:56:16.101Z,2.10
2017-11-26T01:58:43.936Z,2.10
2017-11-26T02:01:11.658Z,2.10
2017-11-26T02:03:51.545Z,2.20
2017-11-26T02:06:19.265Z,2.10
2017-11-26T02:08:46.956Z,2.10
2017-11-26T02:11:13.891Z,2.20
2017-11-26T02:13:40.816Z,2.10
2017-11-26T02:16:07.747Z,2.00
2017-11-26T02:18:34.667Z,2.10
2017-11-26T02:21:01.589Z,2.00
2017-11-26T02:23:30.286Z,2.00
2017-11-26T02:25:57.214Z,1.90
2017-11-26T02:28:24.892Z,2.10
2017-11-26T02:30:51.822Z,2.20
2017-11-26T02:33:31.432Z,2.10
2017-11-26T02:36:17.192Z,2.30
2017-11-26T02:38:45.106Z,2.10
2017-11-26T02:41:13.012Z,2.10
2017-11-26T02:43:39.915Z,2.00
2017-11-26T02:46:06.856Z,2.00
2017-11-26T02:48:35.680Z,2.10
2017-11-26T02:51:02.623Z,2.10
2017-11-26T02:53:29.539Z,2.30
2017-11-26T02:55:56.466Z,2.30
2017-11-26T02:58:23.378Z,2.30
2017-11-26T03:00:50.284Z,2.30
2017-11-26T03:03:17.954Z,2.30
2017-11-26T03:05:45.648Z,2.30
2017-11-26T03:08:12.550Z,2.50
2017-11-26T03:10:40.241Z,2.30
2017-11-26T03:13:07.150Z,2.30
2017-11-26T03:15:34.079Z,2.20
2017-11-26T03:18:00.986Z,2.20
2017-11-26T03:20:27.923Z,2.20
2017-11-26T03:22:54.831Z,2.20
2017-11-26T03:25:22.518Z,2.10
2017-11-26T03:27:49.440Z,2.10
2017-11-26T03:30:17.128Z,2.00
2017-11-26T03:32:44.042Z,2.20
2017-11-26T03:35:11.769Z,2.10
2017-11-26T03:37:38.689Z,2.20
2017-11-26T03:40:05.638Z,2.20
2017-11-26T03:42:33.571Z,2.20
2017-11-26T03:45:01.263Z,2.20
2017-11-26T03:47:29.094Z,2.20
2017-11-26T03:49:56.003Z,2.10
2017-11-26T03:52:22.900Z,2.10
2017-11-26T03:54:50.706Z,2.20
2017-11-26T03:57:17.651Z,2.20
2017-11-26T03:59:44.561Z,2.20
2017-11-26T04:02:11.487Z,2.20
2017-11-26T04:04:39.186Z,2.10
2017-11-26T04:07:06.102Z,2.30
2017-11-26T04:09:33.023Z,2.10
2017-11-26T04:11:59.954Z,2.10
2017-11-26T04:14:26.881Z,2.20
2017-11-26T04:16:53.815Z,2.20
2017-11-26T04:19:20.729Z,2.20
2017-11-26T04:21:48.572Z,2.20
2017-11-26T04:24:16.258Z,2.20
2017-11-26T04:26:43.191Z,2.20
2017-11-26T04:29:10.855Z,2.40
2017-11-26T04:31:42.000Z,2.50
2017-11-26T04:34:08.926Z,2.50
2017-11-26T04:36:36.610Z,2.50
2017-11-26T04:39:03.533Z,2.40
2017-11-26T04:41:31.228Z,2.50
2017-11-26T04:43:58.144Z,2.40
2017-11-26T04:46:25.832Z,2.60
2017-11-26T04:48:52.765Z,2.50
2017-11-26T04:51:19.697Z,2.50
2017-11-26T04:53:47.390Z,2.70
2017-11-26T04:56:14.325Z,2.60
2017-11-26T04:58:41.249Z,2.80
2017-11-26T05:01:08.186Z,2.80
2017-11-26T05:03:35.882Z,2.90
2017-11-26T05:06:02.806Z,2.80
2017-11-26T05:08:30.490Z,2.90
2017-11-26T05:10:57.416Z,3.10
2017-11-26T05:13:24.322Z,2.90
2017-11-26T05:15:51.262Z,2.90
2017-11-26T05:18:18.220Z,2.90
2017-11-26T05:20:45.154Z,2.90
2017-11-26T05:23:12.052Z,3.00
2017-11-26T05:25:38.970Z,3.00
2017-11-26T05:28:06.654Z,3.00
2017-11-26T05:30:33.612Z,3.00
2017-11-26T05:33:01.437Z,3.00
2017-11-26T05:35:29.134Z,3.00
2017-11-26T05:37:56.029Z,2.80
2017-11-26T05:40:22.949Z,3.00
2017-11-26T05:42:49.894Z,3.00
2017-11-26T05:45:16.819Z,3.00
2017-11-26T05:47:44.742Z,3.00
2017-11-26T05:50:12.449Z,3.00
2017-11-26T05:52:39.385Z,3.20
2017-11-26T05:55:06.313Z,3.00
2017-11-26T05:57:33.231Z,3.00
2017-11-26T06:00:00.153Z,2.90
2017-11-26T06:02:27.059Z,3.00
2017-11-26T06:04:53.992Z,3.00
2017-11-26T06:07:20.904Z,3.00
2017-11-26T06:09:47.820Z,3.00
2017-11-26T06:12:14.726Z,3.00
2017-11-26T06:14:42.595Z,3.00
2017-11-26T06:17:10.432Z,3.00
2017-11-26T06:19:37.359Z,3.00
2017-11-26T06:22:05.052Z,3.00
2017-11-26T06:24:32.000Z,3.10
2017-11-26T06:26:59.688Z,3.00
2017-11-26T06:29:26.614Z,2.80
2017-11-26T06:31:53.560Z,3.00
2017-11-26T06:34:20.485Z,3.00
2017-11-26T06:36:49.071Z,3.10
2017-11-26T06:39:16.768Z,3.10
2017-11-26T06:41:43.677Z,3.10
2017-11-26T06:44:11.361Z,3.10
2017-11-26T06:46:38.291Z,3.20
2017-11-26T06:49:05.229Z,3.10
2017-11-26T06:51:32.912Z,3.20
2017-11-26T06:53:59.838Z,3.10
2017-11-26T06:56:28.510Z,3.20
2017-11-26T06:58:56.199Z,3.30
2017-11-26T07:01:23.108Z,3.10
2017-11-26T07:03:53.060Z,3.20
2017-11-26T07:06:19.962Z,3.20
2017-11-26T07:08:48.892Z,3.30
2017-11-26T07:11:17.767Z,3.30
2017-11-26T07:13:45.463Z,3.30
2017-11-26T07:16:12.377Z,3.60
2017-11-26T07:18:40.064Z,3.30
2017-11-26T07:21:06.986Z,3.50
2017-11-26T07:23:33.932Z,3.40
2017-11-26T07:26:01.804Z,3.30
2017-11-26T07:28:29.667Z,3.30
2017-11-26T07:30:56.614Z,3.40
2017-11-26T07:33:25.546Z,3.30
2017-11-26T07:35:52.486Z,3.40
2017-11-26T07:38:19.421Z,3.40
2017-11-26T07:40:46.351Z,3.30
2017-11-26T07:43:15.521Z,3.20
2017-11-26T07:45:42.568Z,3.30
2017-11-26T07:48:09.526Z,3.20
2017-11-26T07:50:37.360Z,3.30
2017-11-26T07:53:04.284Z,3.20
2017-11-26T07:55:31.199Z,3.30
2017-11-26T07:57:58.243Z,3.30
2017-11-26T08:00:25.171Z,3.30
2017-11-26T08:02:52.081Z,3.30
2017-11-26T08:05:19.003Z,3.30
2017-11-26T08:07:45.940Z,3.30
2017-11-26T08:10:12.858Z,3.30
2017-11-26T08:12:39.789Z,3.30
2017-11-26T08:15:07.646Z,3.30
2017-11-26T08:17:36.244Z,3.40
2017-11-26T08:20:03.156Z,3.30
2017-11-26T08:22:30.076Z,3.40
2017-11-26T08:24:56.991Z,3.50
2017-11-26T08:27:23.936Z,3.50
2017-11-26T08:29:54.561Z,3.50
2017-11-26T08:32:21.484Z,3.50
2017-11-26T08:34:49.165Z,3.50
2017-11-26T08:37:16.305Z,3.30
2017-11-26T08:39:43.218Z,3.50
2017-11-26T08:42:10.139Z,3.60
2017-11-26T08:44:40.149Z,3.70
2017-11-26T08:47:07.065Z,3.70
2017-11-26T08:49:33.982Z,3.70
2017-11-26T08:52:01.695Z,3.70
2017-11-26T08:54:28.620Z,3.70
2017-11-26T08:56:55.545Z,3.70
2017-11-26T08:59:22.478Z,3.80
2017-11-26T09:01:50.948Z,3.80
2017-11-26T09:04:18.814Z,4.10
2017-11-26T09:06:45.739Z,3.90
2017-11-26T09:09:13.523Z,3.80
2017-11-26T09:11:40.436Z,3.90
2017-11-26T09:14:08.328Z,3.90
2017-11-26T09:16:36.258Z,3.90
2017-11-26T09:19:03.182Z,3.90
2017-11-26T09:21:30.831Z,4.00
2017-11-26T09:23:58.681Z,4.00
2017-11-26T09:26:26.382Z,4.10
2017-11-26T09:28:53.289Z,4.00
2017-11-26T09:31:20.987Z,4.10
2017-11-26T09:33:47.906Z,4.10
2017-11-26T09:36:14.868Z,4.10
2017-11-26T09:38:41.773Z,4.30
2017-11-26T09:41:08.722Z,4.20
2017-11-26T09:43:36.419Z,4.30
2017-11-26T09:46:03.390Z,4.20
2017-11-26T09:48:31.304Z,4.20
2017-11-26T09:50:58.993Z,4.30
2017-11-26T09:53:25.957Z,4.30
2017-11-26T09:55:52.903Z,4.40
2017-11-26T09:58:19.824Z,4.40
2017-11-26T10:00:46.742Z,4.50
2017-11-26T10:03:14.412Z,4.80
2017-11-26T10:05:42.121Z,4.70
2017-11-26T10:08:09.045Z,4.80
2017-11-26T10:10:35.993Z,4.70
2017-11-26T10:13:04.850Z,4.50
2017-11-26T10:15:32.548Z,4.30
2017-11-26T10:17:59.460Z,4.30
2017-11-26T10:20:26.396Z,4.30
2017-11-26T10:22:54.079Z,4.40
2017-11-26T10:25:21.014Z,4.70
2017-11-26T10:27:48.689Z,4.50
2017-11-26T10:30:15.617Z,4.40
2017-11-26T10:32:43.392Z,4.50
2017-11-26T10:35:12.277Z,4.60
2017-11-26T10:37:39.194Z,4.60
2017-11-26T10:40:06.111Z,4.60
2017-11-26T10:42:34.963Z,4.70
2017-11-26T10:45:01.881Z,4.70
2017-11-26T10:47:29.545Z,4.70
2017-11-26T10:49:56.488Z,4.70
2017-11-26T10:52:23.404Z,4.60
2017-11-26T10:54:50.323Z,4.70
2017-11-26T10:57:18.017Z,4.80
2017-11-26T10:59:46.936Z,4.70
2017-11-26T11:02:14.716Z,4.70
2017-11-26T11:04:42.580Z,5.00
2017-11-26T11:07:09.493Z,4.70
2017-11-26T11:09:37.245Z,4.70
2017-11-26T11:12:04.271Z,4.70
2017-11-26T11:14:31.212Z,4.70
2017-11-26T11:16:58.120Z,4.80
2017-11-26T11:19:25.036Z,4.90
2017-11-26T11:21:52.719Z,4.90
2017-11-26T11:24:22.031Z,4.90
2017-11-26T11:26:48.934Z,5.00
2017-11-26T11:29:15.860Z,4.90
2017-11-26T11:31:42.780Z,4.90
2017-11-26T11:34:09.710Z,4.80
2017-11-26T11:36:36.776Z,4.90
2017-11-26T11:39:03.762Z,4.90
2017-11-26T11:41:30.730Z,5.10
2017-11-26T11:44:01.195Z,5.10
2017-11-26T11:46:29.163Z,5.40
2017-11-26T11:48:56.112Z,5.20
2017-11-26T11:51:23.053Z,5.20
2017-11-26T11:53:51.026Z,5.10
2017-11-26T11:56:17.986Z,5.10
2017-11-26T11:58:44.948Z,5.00
2017-11-26T12:01:11.878Z,4.90
2017-11-26T12:03:38.818Z,4.90
2017-11-26T12:06:05.927Z,5.00
2017-11-26T12:08:32.870Z,4.90
2017-11-26T12:11:00.835Z,5.00
2017-11-26T12:13:27.835Z,5.00
2017-11-26T12:15:54.751Z,5.00
2017-11-26T12:18:23.654Z,5.00
2017-11-26T12:20:50.594Z,5.00
2017-11-26T12:23:19.394Z,4.90
2017-11-26T12:25:46.330Z,4.90
2017-11-26T12:28:15.406Z,4.90
2017-11-26T12:30:44.275Z,4.90
2017-11-26T12:33:11.976Z,4.90
2017-11-26T12:35:39.903Z,4.90
2017-11-26T12:38:08.605Z,4.90
2017-11-26T12:40:35.532Z,4.80
2017-11-26T12:43:03.224Z,4.80
2017-11-26T12:45:30.152Z,4.80
2017-11-26T12:47:57.977Z,4.80
2017-11-26T12:50:24.924Z,4.90
2017-11-26T12:52:51.896Z,5.00
2017-11-26T12:55:23.133Z,5.20
2017-11-26T12:57:50.817Z,5.20
2017-11-26T13:00:18.156Z,5.30
2017-11-26T13:02:45.856Z,5.20
2017-11-26T13:05:15.110Z,5.20
2017-11-26T13:07:42.790Z,5.20
2017-11-26T13:10:10.659Z,5.30
2017-11-26T13:12:37.575Z,5.10
2017-11-26T13:15:05.427Z,5.20
2017-11-26T13:17:32.341Z,5.20
2017-11-26T13:19:59.274Z,5.20
2017-11-26T13:22:29.337Z,5.30
2017-11-26T13:24:57.063Z,5.20
2017-11-26T13:27:23.990Z,5.20
2017-11-26T13:29:50.912Z,5.20
2017-11-26T13:32:18.937Z,5.30
2017-11-26T13:34:46.849Z,5.40
2017-11-26T13:37:14.608Z,5.30
2017-11-26T13:39:42.303Z,5.20
2017-11-26T13:42:09.237Z,5.20
2017-11-26T13:44:36.159Z,5.20
2017-11-26T13:47:03.855Z,5.20
2017-11-26T13:49:35.095Z,5.50
2017-11-26T13:52:01.998Z,5.30
2017-11-26T13:54:28.918Z,5.30
2017-11-26T13:56:55.856Z,5.30
2017-11-26T13:59:24.251Z,5.20
2017-11-26T14:01:51.180Z,5.30
2017-11-26T14:04:18.109Z,5.30
2017-11-26T14:06:45.022Z,5.30
2017-11-26T14:09:12.705Z,5.20
2017-11-26T14:11:39.621Z,5.20
2017-11-26T14:14:08.340Z,5.20
2017-11-26T14:16:35.480Z,5.10
2017-11-26T14:19:08.271Z,5.20
2017-11-26T14:21:35.983Z,5.30
2017-11-26T14:24:04.789Z,5.30
2017-11-26T14:26:32.470Z,5.30
2017-11-26T14:29:01.872Z,5.30
2017-11-26T14:31:29.827Z,5.30
2017-11-26T14:33:57.664Z,5.30
2017-11-26T14:36:25.567Z,5.30
2017-11-26T14:38:52.512Z,5.30
2017-11-26T14:41:21.393Z,5.30
2017-11-26T14:43:51.646Z,5.30
2017-11-26T14:46:18.622Z,5.30
2017-11-26T14:48:45.582Z,5.30
2017-11-26T14:51:12.517Z,5.30
2017-11-26T14:53:39.446Z,5.30
2017-11-26T14:56:06.357Z,5.20
2017-11-26T14:58:33.272Z,5.20
2017-11-26T15:01:00.962Z,5.00
2017-11-26T15:03:27.872Z,5.10
2017-11-26T15:05:59.616Z,4.90
2017-11-26T15:08:28.549Z,5.20
2017-11-26T15:10:55.453Z,4.90
2017-11-26T15:13:22.401Z,4.90
2017-11-26T15:15:49.351Z,4.80
2017-11-26T15:18:18.982Z,4.80
2017-11-26T15:20:46.731Z,4.80
2017-11-26T15:23:14.425Z,4.80
2017-11-26T15:25:41.359Z,5.00
2017-11-26T15:28:08.287Z,4.80
2017-11-26T15:30:37.898Z,4.90
2017-11-26T15:33:05.618Z,4.90
2017-11-26T15:35:33.446Z,5.00
2017-11-26T15:38:02.350Z,4.90
2017-11-26T15:40:29.263Z,4.90
2017-11-26T15:42:56.233Z,4.90
2017-11-26T15:45:23.165Z,4.90
2017-11-26T15:47:50.097Z,4.90
2017-11-26T15:50:17.029Z,4.80
2017-11-26T15:52:44.716Z,4.80
2017-11-26T15:55:11.646Z,4.80
2017-11-26T15:57:40.318Z,4.80
2017-11-26T16:00:09.567Z,4.80
2017-11-26T16:02:37.488Z,4.90
2017-11-26T16:05:04.512Z,4.80
2017-11-26T16:07:32.346Z,4.90
2017-11-26T16:10:02.422Z,5.00
2017-11-26T16:12:30.323Z,5.00
2017-11-26T16:14:57.234Z,5.10
2017-11-26T16:17:24.956Z,5.10
2017-11-26T16:19:53.113Z,5.30
2017-11-26T16:22:20.080Z,5.10
2017-11-26T16:24:47.994Z,5.00
2017-11-26T16:27:14.961Z,5.00
2017-11-26T16:29:42.899Z,4.90
2017-11-26T16:32:11.798Z,4.90
2017-11-26T16:34:39.649Z,4.90
2017-11-26T16:37:10.400Z,5.10
2017-11-26T16:39:41.780Z,5.30
2017-11-26T16:42:09.709Z,5.10
2017-11-26T16:44:37.407Z,4.90
2017-11-26T16:47:04.367Z,4.90
2017-11-26T16:49:34.697Z,4.60
2017-11-26T16:52:01.942Z,4.50
2017-11-26T16:54:32.013Z,4.50
2017-11-26T16:56:59.001Z,4.40
2017-11-26T16:59:34.427Z,4.50
2017-11-26T17:02:01.369Z,4.40
2017-11-26T17:04:28.313Z,4.40
2017-11-26T17:06:55.247Z,4.40
2017-11-26T17:09:22.178Z,4.50
2017-11-26T17:11:51.807Z,4.50
2017-11-26T17:14:18.756Z,4.60
2017-11-26T17:16:45.708Z,4.50
2017-11-26T17:19:15.278Z,4.50
2017-11-26T17:21:44.394Z,4.50
2017-11-26T17:24:11.422Z,4.60
2017-11-26T17:26:38.416Z,4.60
2017-11-26T17:29:10.786Z,4.60
2017-11-26T17:31:37.956Z,4.60
2017-11-26T17:34:04.887Z,4.50
2017-11-26T17:36:31.830Z,4.50
2017-11-26T17:38:59.975Z,4.60
2017-11-26T17:41:27.731Z,4.70
2017-11-26T17:44:00.506Z,5.00
2017-11-26T17:46:29.583Z,4.70
2017-11-26T17:48:57.314Z,4.70
2017-11-26T17:51:24.250Z,4.80
2017-11-26T17:53:51.252Z,4.70
2017-11-26T17:56:18.453Z,4.70
2017-11-26T17:58:45.381Z,4.70
2017-11-26T18:01:12.338Z,4.60
2017-11-26T18:03:39.244Z,4.50
2017-11-26T18:06:06.170Z,4.50
2017-11-26T18:08:33.107Z,4.50
2017-11-26T18:11:00.819Z,4.50
2017-11-26T18:13:27.777Z,4.70
2017-11-26T18:15:55.622Z,4.60
2017-11-26T18:18:26.290Z,4.70
2017-11-26T18:20:53.225Z,4.70
2017-11-26T18:23:20.170Z,4.80
2017-11-26T18:25:47.125Z,4.80
2017-11-26T18:28:14.052Z,4.90
2017-11-26T18:30:41.010Z,4.90
2017-11-26T18:33:14.154Z,5.00
2017-11-26T18:35:41.097Z,5.00
2017-11-26T18:38:08.776Z,5.00
2017-11-26T18:40:41.929Z,5.00
2017-11-26T18:43:08.883Z,5.00
2017-11-26T18:45:36.577Z,5.10
2017-11-26T18:48:03.523Z,5.20
2017-11-26T18:50:30.477Z,5.00
2017-11-26T18:52:57.412Z,5.10
2017-11-26T18:55:24.356Z,5.10
2017-11-26T18:57:51.268Z,5.00
2017-11-26T19:00:20.182Z,5.00
2017-11-26T19:02:49.066Z,5.00
2017-11-26T19:05:16.915Z,5.00
2017-11-26T19:07:43.827Z,5.00
2017-11-26T19:10:10.783Z,5.10
2017-11-26T19:12:39.688Z,5.00
2017-11-26T19:15:07.385Z,5.00
2017-11-26T19:17:34.296Z,4.90
2017-11-26T19:20:01.243Z,5.00
2017-11-26T19:22:28.191Z,5.00
2017-11-26T19:24:55.140Z,5.00
2017-11-26T19:27:22.054Z,5.00
2017-11-26T19:29:48.961Z,4.90
2017-11-26T19:32:15.914Z,4.90
2017-11-26T19:34:43.851Z,4.90
2017-11-26T19:37:10.820Z,4.90
2017-11-26T19:39:40.974Z,4.90
2017-11-26T19:42:11.433Z,4.80
2017-11-26T19:44:38.385Z,4.90
2017-11-26T19:47:08.624Z,4.90
2017-11-26T19:49:35.601Z,4.90
2017-11-26T19:52:03.328Z,4.80
2017-11-26T19:54:30.283Z,4.90
2017-11-26T19:56:57.206Z,4.80
2017-11-26T19:59:25.214Z,4.80
2017-11-26T20:01:52.145Z,4.80
2017-11-26T20:04:19.093Z,4.70
2017-11-26T20:06:47.032Z,4.70
2017-11-26T20:09:14.221Z,4.70
2017-11-26T20:11:41.130Z,4.70
2017-11-26T20:14:08.809Z,4.70
2017-11-26T20:16:35.733Z,4.70
2017-11-26T20:19:02.662Z,4.80
2017-11-26T20:21:33.420Z,4.80
2017-11-26T20:24:00.355Z,4.80
2017-11-26T20:26:27.358Z,4.80
2017-11-26T20:28:55.256Z,4.80
2017-11-26T20:31:22.190Z,4.80
2017-11-26T20:33:50.115Z,4.90
2017-11-26T20:36:17.041Z,4.90
2017-11-26T20:38:43.978Z,4.80
2017-11-26T20:41:10.912Z,4.80
2017-11-26T20:43:37.820Z,4.80
2017-11-26T20:46:05.493Z,4.80
2017-11-26T20:48:32.469Z,4.70
2017-11-26T20:50:59.376Z,4.80
2017-11-26T20:53:27.063Z,4.70
2017-11-26T20:55:56.051Z,4.70
2017-11-26T20:58:25.266Z,4.70
2017-11-26T21:00:53.570Z,4.70
2017-11-26T21:03:21.466Z,4.80
2017-11-26T21:05:48.404Z,4.80
2017-11-26T21:08:15.383Z,4.80
2017-11-26T21:10:42.369Z,4.70
2017-11-26T21:13:12.059Z,4.70
2017-11-26T21:15:38.991Z,4.80
2017-11-26T21:18:07.025Z,4.80
2017-11-26T21:20:34.005Z,4.90
2017-11-26T21:23:00.967Z,4.90
2017-11-26T21:25:27.883Z,4.80
2017-11-26T21:27:54.805Z,4.80
2017-11-26T21:30:22.660Z,5.10
2017-11-26T21:32:54.291Z,5.00
2017-11-26T21:35:21.218Z,5.00
2017-11-26T21:37:48.165Z,4.90
2017-11-26T21:40:15.117Z,4.80
2017-11-26T21:42:47.985Z,4.80
2017-11-26T21:45:14.894Z,4.80
2017-11-26T21:47:43.810Z,4.80
2017-11-26T21:50:10.746Z,4.80
2017-11-26T21:52:38.236Z,4.70
2017-11-26T21:55:06.101Z,4.70
2017-11-26T21:57:33.024Z,4.60
2017-11-26T21:59:59.961Z,4.60
2017-11-26T22:02:27.833Z,4.70
2017-11-26T22:04:54.733Z,4.60
2017-11-26T22:07:22.659Z,4.60
2017-11-26T22:09:49.565Z,4.60
2017-11-26T22:12:18.276Z,4.70
2017-11-26T22:14:45.213Z,4.70
2017-11-26T22:17:14.120Z,4.70
2017-11-26T22:19:41.684Z,4.70
2017-11-26T22:22:08.697Z,4.70
2017-11-26T22:24:35.620Z,4.70
2017-11-26T22:27:02.549Z,4.70
2017-11-26T22:29:29.464Z,4.70
2017-11-26T22:31:56.383Z,4.70
2017-11-26T22:34:23.311Z,4.80
2017-11-26T22:36:50.225Z,4.90
2017-11-26T22:39:17.129Z,4.90
2017-11-26T22:41:44.082Z,4.80
2017-11-26T22:44:11.022Z,4.90
2017-11-26T22:46:38.851Z,4.80
2017-11-26T22:49:08.468Z,4.70
2017-11-26T22:51:36.149Z,4.60
2017-11-26T22:54:03.078Z,4.90
2017-11-26T22:56:30.781Z,4.50
2017-11-26T22:58:57.709Z,4.70
2017-11-26T23:01:24.643Z,4.60
2017-11-26T23:03:51.574Z,4.60
2017-11-26T23:06:19.266Z,4.50
2017-11-26T23:08:46.170Z,4.60
2017-11-26T23:11:13.860Z,4.50
2017-11-26T23:13:40.782Z,4.60
2017-11-26T23:16:08.500Z,4.50
2017-11-26T23:18:36.418Z,4.40
2017-11-26T23:21:04.108Z,4.50
2017-11-26T23:23:31.020Z,4.40
2017-11-26T23:25:58.715Z,4.40
2017-11-26T23:28:26.534Z,4.50
2017-11-26T23:30:53.456Z,4.30
2017-11-26T23:33:20.371Z,4.20
2017-11-26T23:35:47.307Z,4.20
2017-11-26T23:38:14.228Z,4.20
2017-11-26T23:40:43.518Z,4.10
2017-11-26T23:43:11.190Z,4.10
2017-11-26T23:45:38.866Z,4.10
2017-11-26T23:48:05.787Z,4.20
2017-11-26T23:50:33.485Z,4.20
2017-11-26T23:53:00.395Z,4.40
2017-11-26T23:55:28.089Z,4.20
2017-11-26T23:57:55.922Z,4.30
